Time;durP1;ratioP1;P1;durP2;ratioP2;P2;SDS_P1;SDS_P2;PMS_P1;PMS_P2;Temp;Humidity;BMP_temperature;BMP_pressure;BME280_temperature;BME280_humidity;BME280_pressure;Samples;Min_cycle;Max_cycle;Signal;HPM_P1;HPM_P2
2022/07/21 00:42:24;;;;;;;;;;;;;;;31.21;23.58;99316.41;4975030;27;19982;-85
2022/07/21 00:44:52;;;;;;;;;;;;;;;31.32;23.42;99314.84;4410101;32;34155;-85
2022/07/21 00:47:27;;;;;;;;;;;;;;;31.44;23.25;99312.16;4408086;32;33876;-87
2022/07/21 00:49:55;;;;;;;;;;;;;;;31.41;23.21;99323.09;4416076;32;34069;-83
2022/07/21 00:52:22;;;;;;;;;;;;;;;31.40;23.25;99317.81;4410145;32;33037;-85
2022/07/21 00:54:50;;;;;;;;;;;;;;;31.57;23.01;99314.81;4412702;32;33626;-87
2022/07/21 00:57:17;;;;;;;;;;;;;;;31.36;23.11;99313.66;4421940;32;34532;-85
2022/07/21 00:59:44;;;;;;;;;;;;;;;31.36;23.28;99313.66;4437009;32;34945;-85
2022/07/21 01:02:12;;;;;;;;;;;;;;;31.40;23.15;99310.62;4431933;32;33051;-91
2022/07/21 01:04:39;;;;;;;;;;;;;;;31.09;23.60;99306.56;4420812;32;33957;-95
2022/07/21 01:07:07;;;;;;;;;;;;;;;31.27;23.32;99312.47;4406937;32;34395;-86
2022/07/21 01:09:34;;;;;;;;;;;;;;;31.16;23.27;99307.84;4407606;32;34143;-87
2022/07/21 01:12:03;;;;;;;;;;;;;;;31.33;23.20;99314.75;4407008;32;33771;-89
2022/07/21 01:14:31;;;;;;;;;;;;;;;31.26;23.28;99311.59;4408786;32;34547;-90
2022/07/21 01:17:02;;;;;;;;;;;;;;;31.26;23.31;99316.13;4406006;32;34864;-86
2022/07/21 01:19:30;;;;;;;;;;;;;;;31.46;23.05;99318.25;4429918;32;34677;-85
2022/07/21 01:21:57;;;;;;;;;;;;;;;31.16;23.53;99317.72;4427514;32;32991;-85
2022/07/21 01:24:24;;;;;;;;;;;;;;;31.39;23.17;99316.97;4407763;32;34192;-85
2022/07/21 01:26:52;;;;;;;;;;;;;;;31.48;23.08;99313.66;4413998;32;34274;-85
2022/07/21 01:29:20;;;;;;;;;;;;;;;31.53;23.07;99313.31;4406777;32;34321;-85
2022/07/21 01:31:47;;;;;;;;;;;;;;;31.41;23.17;99307.03;4413026;32;33698;-86
2022/07/21 01:34:15;;;;;;;;;;;;;;;31.26;23.45;99313.44;4419060;32;35004;-86
2022/07/21 01:36:42;;;;;;;;;;;;;;;31.34;23.51;99311.09;4429682;32;35128;-86
2022/07/21 01:41:55;;;;;;;;;;;;;;;31.34;23.56;99307.56;4430272;32;33068;-84
2022/07/21 01:44:24;;;;;;;;;;;;;;;31.50;23.34;99303.66;4407686;32;34221;-83
2022/07/21 01:46:51;;;;;;;;;;;;;;;31.44;23.43;99301.44;4421578;32;34237;-84
2022/07/21 01:49:19;;;;;;;;;;;;;;;31.41;23.49;99308.84;4407580;32;34335;-83
2022/07/21 01:51:47;;;;;;;;;;;;;;;31.34;23.71;99303.06;4421270;32;34321;-84
2022/07/21 01:54:14;;;;;;;;;;;;;;;31.44;23.63;99301.44;4421220;32;34231;-84
2022/07/21 01:56:49;;;;;;;;;;;;;;;31.46;23.59;99298.66;4408790;32;34303;-86
2022/07/21 01:59:16;;;;;;;;;;;;;;;31.42;23.70;99311.41;4422146;32;33650;-86
2022/07/21 02:01:44;;;;;;;;;;;;;;;31.33;23.75;99306.72;4401655;32;33687;-85
2022/07/21 02:04:11;;;;;;;;;;;;;;;31.59;23.50;99304.81;4406867;32;33405;-86
2022/07/21 02:06:38;;;;;;;;;;;;;;;31.46;23.80;99302.19;4429543;32;34161;-87
2022/07/21 02:09:07;;;;;;;;;;;;;;;31.52;23.60;99305.38;4393724;32;33562;-85
2022/07/21 02:11:34;;;;;;;;;;;;;;;31.72;23.56;99304.81;4406380;32;33699;-88
2022/07/21 02:14:02;;;;;;;;;;;;;;;31.55;23.83;99307.84;4409192;32;33984;-87
2022/07/21 02:16:29;;;;;;;;;;;;;;;31.52;23.86;99302.69;4400767;32;34184;-83
2022/07/21 02:18:57;;;;;;;;;;;;;;;31.43;23.89;99305.06;4407199;32;34592;-86
2022/07/21 02:21:24;;;;;;;;;;;;;;;31.49;23.88;99307.31;4421098;32;33669;-84
2022/07/21 02:23:51;;;;;;;;;;;;;;;31.52;23.81;99313.41;4421395;32;34150;-85
2022/07/21 02:26:19;;;;;;;;;;;;;;;31.46;24.09;99310.22;4408614;32;34286;-85
2022/07/21 02:28:46;;;;;;;;;;;;;;;31.22;24.34;99323.50;4421246;32;34659;-85
2022/07/21 02:31:13;;;;;;;;;;;;;;;31.30;24.29;99319.44;4419632;32;33163;-88
2022/07/21 02:33:41;;;;;;;;;;;;;;;31.20;24.39;99319.22;4421034;32;33920;-85
2022/07/21 02:36:08;;;;;;;;;;;;;;;31.11;24.43;99309.16;4407358;32;34865;-87
2022/07/21 02:38:36;;;;;;;;;;;;;;;31.18;24.30;99315.78;4432541;32;33643;-86
2022/07/21 02:41:03;;;;;;;;;;;;;;;31.07;24.57;99315.69;4404387;32;33396;-87
2022/07/21 02:43:30;;;;;;;;;;;;;;;30.62;25.14;99317.84;4429871;32;34114;-86
2022/07/21 02:45:57;;;;;;;;;;;;;;;31.20;24.38;99314.69;4425934;32;34401;-85
2022/07/21 02:48:25;;;;;;;;;;;;;;;31.33;24.13;99312.06;4421071;32;35094;-87
2022/07/21 02:50:52;;;;;;;;;;;;;;;31.35;24.05;99320.84;4421276;32;33294;-86
2022/07/21 02:53:22;;;;;;;;;;;;;;;31.33;24.08;99319.22;4419725;32;33442;-86
2022/07/21 02:55:51;;;;;;;;;;;;;;;31.25;24.13;99317.06;4421259;32;35259;-87
2022/07/21 02:58:19;;;;;;;;;;;;;;;31.23;24.23;99317.16;4423568;32;34623;-87
2022/07/21 03:01:12;;;;;;;;;;;;;;;31.23;24.11;99311.81;4421041;32;33020;-87
2022/07/21 03:03:40;;;;;;;;;;;;;;;31.32;24.03;99318.38;4405276;32;34524;-87
2022/07/21 03:06:07;;;;;;;;;;;;;;;31.38;23.95;99323.31;4420823;32;34946;-87
2022/07/21 03:08:34;;;;;;;;;;;;;;;31.30;24.02;99317.63;4420543;32;34719;-88
2022/07/21 03:11:03;;;;;;;;;;;;;;;31.27;23.99;99315.13;4402850;32;32652;-87
2022/07/21 03:13:30;;;;;;;;;;;;;;;31.35;23.86;99318.16;4409505;32;33307;-86
2022/07/21 03:15:57;;;;;;;;;;;;;;;31.39;23.80;99318.81;4411304;32;34484;-89
2022/07/21 03:18:25;;;;;;;;;;;;;;;31.33;23.75;99320.09;4406619;32;34281;-88
2022/07/21 03:20:52;;;;;;;;;;;;;;;31.29;23.72;99323.06;4420529;32;34232;-87
2022/07/21 03:23:19;;;;;;;;;;;;;;;31.33;23.70;99317.44;4422647;32;34947;-87
2022/07/21 03:25:47;;;;;;;;;;;;;;;31.38;23.65;99322.44;4409912;32;34423;-89
2022/07/21 03:28:14;;;;;;;;;;;;;;;31.38;23.71;99312.59;4411836;32;34073;-87
2022/07/21 03:30:41;;;;;;;;;;;;;;;31.29;23.75;99317.69;4408280;32;33854;-87
2022/07/21 03:33:09;;;;;;;;;;;;;;;31.30;23.76;99322.13;4422248;32;33934;-87
2022/07/21 03:35:36;;;;;;;;;;;;;;;31.25;23.92;99322.41;4422277;32;33889;-87
2022/07/21 03:38:04;;;;;;;;;;;;;;;31.08;24.13;99314.72;4408552;32;34069;-88
2022/07/21 03:40:33;;;;;;;;;;;;;;;31.17;23.98;99312.22;4393684;32;33586;-85
2022/07/21 03:43:01;;;;;;;;;;;;;;;31.29;23.94;99323.06;4396102;32;33278;-86
2022/07/21 03:45:30;;;;;;;;;;;;;;;31.36;23.91;99319.00;4408379;32;35530;-86
2022/07/21 03:47:58;;;;;;;;;;;;;;;31.36;24.02;99319.88;4432096;32;33951;-86
2022/07/21 03:50:25;;;;;;;;;;;;;;;31.44;24.04;99320.22;4425362;32;34077;-86
2022/07/21 03:52:52;;;;;;;;;;;;;;;31.55;24.14;99323.91;4408357;32;34331;-87
2022/07/21 03:55:20;;;;;;;;;;;;;;;31.55;24.31;99327.44;4410318;32;34259;-86
2022/07/21 03:57:52;;;;;;;;;;;;;;;31.71;24.28;99329.91;4424171;32;34425;-87
2022/07/21 04:00:27;;;;;;;;;;;;;;;31.80;24.20;99329.25;4422741;32;33259;-85
2022/07/21 04:02:54;;;;;;;;;;;;;;;31.71;24.27;99330.78;4408648;32;34167;-84
2022/07/21 04:05:21;;;;;;;;;;;;;;;32.03;24.26;99337.47;4413509;32;35218;-84
2022/07/21 04:07:49;;;;;;;;;;;;;;;31.91;24.33;99337.41;4417219;32;34273;-85
2022/07/21 04:10:18;;;;;;;;;;;;;;;32.05;24.40;99333.72;4437834;32;33500;-86
2022/07/21 04:12:45;;;;;;;;;;;;;;;32.24;24.38;99333.22;4395106;32;34879;-86
2022/07/21 04:15:12;;;;;;;;;;;;;;;32.59;24.54;99327.06;4418668;32;34511;-87
2022/07/21 04:17:40;;;;;;;;;;;;;;;32.74;24.44;99336.63;4413121;32;33946;-86
2022/07/21 04:20:08;;;;;;;;;;;;;;;32.87;23.90;99337.37;4437296;32;33758;-86
2022/07/21 04:22:36;;;;;;;;;;;;;;;33.19;23.82;99334.09;4423292;32;34827;-86
2022/07/21 04:25:04;;;;;;;;;;;;;;;33.54;22.86;99333.16;4410414;32;34200;-86
2022/07/21 04:27:32;;;;;;;;;;;;;;;33.82;22.66;99329.94;4434151;32;34943;-86
2022/07/21 04:29:59;;;;;;;;;;;;;;;34.11;22.26;99329.47;4416941;32;34111;-86
2022/07/21 04:32:27;;;;;;;;;;;;;;;34.35;22.52;99329.25;4421868;32;34268;-85
2022/07/21 04:34:54;;;;;;;;;;;;;;;34.56;22.57;99340.09;4421252;32;34291;-86
2022/07/21 04:37:21;;;;;;;;;;;;;;;34.96;22.16;99337.56;4407702;32;34301;-86
2022/07/21 04:39:49;;;;;;;;;;;;;;;35.18;21.78;99335.75;4416008;32;33075;-86
2022/07/21 04:42:19;;;;;;;;;;;;;;;35.36;20.91;99334.16;4396916;32;33867;-86
2022/07/21 04:44:47;;;;;;;;;;;;;;;35.58;21.63;99342.09;4396397;32;35295;-87
2022/07/21 04:47:15;;;;;;;;;;;;;;;35.92;21.72;99343.63;4406647;32;33978;-87
2022/07/21 04:49:42;;;;;;;;;;;;;;;35.70;21.65;99337.44;4380590;32;33786;-86
2022/07/21 04:52:09;;;;;;;;;;;;;;;35.63;20.76;99341.69;4392790;32;34187;-87
2022/07/21 04:54:37;;;;;;;;;;;;;;;36.04;20.61;99339.84;4404352;32;34086;-84
2022/07/21 04:57:05;;;;;;;;;;;;;;;34.43;20.90;99344.75;4406370;32;34094;-85
2022/07/21 04:59:33;;;;;;;;;;;;;;;34.44;21.17;99341.06;4392130;32;33286;-85
2022/07/21 05:02:01;;;;;;;;;;;;;;;36.36;20.47;99341.47;4406437;32;35311;-86
2022/07/21 05:04:28;;;;;;;;;;;;;;;35.53;20.86;99340.78;4395223;32;35207;-87
2022/07/21 05:06:55;;;;;;;;;;;;;;;35.33;21.41;99346.03;4388844;32;34088;-86
2022/07/21 05:09:23;;;;;;;;;;;;;;;36.21;21.01;99349.97;4398006;32;33324;-87
2022/07/21 05:11:50;;;;;;;;;;;;;;;35.90;20.59;99342.91;4392007;32;35152;-86
2022/07/21 05:14:17;;;;;;;;;;;;;;;34.94;20.82;99341.38;4395428;32;34437;-85
2022/07/21 05:16:45;;;;;;;;;;;;;;;35.94;21.24;99338.94;4391430;32;33786;-86
2022/07/21 05:19:12;;;;;;;;;;;;;;;34.82;21.49;99340.59;4391230;32;33325;-86
2022/07/21 05:21:40;;;;;;;;;;;;;;;34.01;21.90;99339.25;4403231;32;33951;-87
2022/07/21 05:24:08;;;;;;;;;;;;;;;34.14;22.03;99342.66;4410645;32;34537;-86
2022/07/21 05:26:36;;;;;;;;;;;;;;;34.97;21.56;99338.44;4404482;32;34266;-86
2022/07/21 05:29:03;;;;;;;;;;;;;;;35.49;20.81;99345.59;4379578;32;34282;-86
2022/07/21 05:31:30;;;;;;;;;;;;;;;35.74;20.35;99349.66;4391704;32;35155;-86
2022/07/21 05:33:58;;;;;;;;;;;;;;;35.44;20.50;99346.97;4390443;32;34280;-86
2022/07/21 05:36:25;;;;;;;;;;;;;;;35.04;21.06;99351.28;4396744;32;34464;-87
2022/07/21 05:38:52;;;;;;;;;;;;;;;34.49;21.76;99358.59;4393367;32;33739;-89
2022/07/21 05:41:21;;;;;;;;;;;;;;;35.61;21.08;99365.22;4398868;32;34340;-86
2022/07/21 05:43:48;;;;;;;;;;;;;;;35.61;20.78;99362.53;4414052;32;34128;-86
2022/07/21 05:46:15;;;;;;;;;;;;;;;35.92;21.71;99373.31;4418712;32;34311;-88
2022/07/21 05:48:43;;;;;;;;;;;;;;;36.40;21.22;99370.72;4421709;32;33024;-87
2022/07/21 05:51:10;;;;;;;;;;;;;;;35.50;21.51;99365.34;4409731;32;34985;-86
2022/07/21 05:53:45;;;;;;;;;;;;;;;36.57;20.57;99376.47;4422598;32;34825;-86
2022/07/21 05:56:12;;;;;;;;;;;;;;;36.35;20.10;99374.84;4422108;32;34166;-88
2022/07/21 05:58:40;;;;;;;;;;;;;;;36.23;20.52;99377.69;4434659;32;33278;-87
2022/07/21 06:01:13;;;;;;;;;;;;;;;36.61;20.21;99375.19;4422547;32;34138;-86
2022/07/21 06:03:43;;;;;;;;;;;;;;;37.01;19.17;99367.84;4424195;32;34491;-86
2022/07/21 06:06:12;;;;;;;;;;;;;;;36.04;19.88;99369.53;4421412;32;34176;-86
2022/07/21 06:08:40;;;;;;;;;;;;;;;36.22;20.58;99373.28;4419491;32;33108;-86
2022/07/21 06:11:08;;;;;;;;;;;;;;;37.20;19.49;99372.34;4423914;32;35057;-88
2022/07/21 06:13:35;;;;;;;;;;;;;;;36.63;19.79;99374.03;4417102;32;34367;-87
2022/07/21 06:16:06;;;;;;;;;;;;;;;36.20;20.37;99375.25;4392452;32;33203;-86
2022/07/21 06:18:34;;;;;;;;;;;;;;;35.31;21.25;99375.00;4428743;32;33288;-86
2022/07/21 06:21:01;;;;;;;;;;;;;;;35.99;20.14;99375.34;4401792;32;33813;-87
2022/07/21 06:23:28;;;;;;;;;;;;;;;36.50;20.62;99373.50;4421375;32;33803;-88
2022/07/21 06:25:56;;;;;;;;;;;;;;;36.96;19.73;99366.53;4410327;32;34063;-88
2022/07/21 06:28:23;;;;;;;;;;;;;;;36.35;20.80;99381.09;4430220;32;33388;-87
2022/07/21 06:30:51;;;;;;;;;;;;;;;36.82;20.01;99377.75;4436243;32;33686;-87
2022/07/21 06:33:18;;;;;;;;;;;;;;;34.66;22.22;99389.50;4404271;32;35150;-90
2022/07/21 06:35:46;;;;;;;;;;;;;;;35.48;21.30;99372.66;4421200;32;33873;-86
2022/07/21 06:38:13;;;;;;;;;;;;;;;35.74;21.15;99370.41;4422615;32;33231;-86
2022/07/21 06:40:40;;;;;;;;;;;;;;;35.98;20.38;99367.34;4422301;32;34328;-88
2022/07/21 06:43:10;;;;;;;;;;;;;;;36.84;20.29;99359.56;4424262;32;35233;-86
2022/07/21 06:45:56;;;;;;;;;;;;;;;36.97;20.39;99363.69;4417542;32;33931;-82
2022/07/21 06:48:24;;;;;;;;;;;;;;;36.15;21.06;99373.97;4420893;32;33245;-85
2022/07/21 06:50:52;;;;;;;;;;;;;;;35.27;21.31;99370.84;4428294;32;33938;-85
2022/07/21 06:53:20;;;;;;;;;;;;;;;37.02;20.09;99363.28;4422447;32;34471;-85
2022/07/21 06:55:49;;;;;;;;;;;;;;;37.25;19.46;99361.94;4415154;32;34131;-84
2022/07/21 06:58:17;;;;;;;;;;;;;;;37.94;19.66;99357.16;4420621;32;33588;-86
2022/07/21 07:00:45;;;;;;;;;;;;;;;36.33;19.99;99368.72;4406950;32;34220;-87
2022/07/21 07:03:13;;;;;;;;;;;;;;;36.60;20.60;99374.34;4411010;32;35139;-82
2022/07/21 07:05:41;;;;;;;;;;;;;;;37.45;19.09;99365.47;4411776;32;34820;-83
2022/07/21 07:08:08;;;;;;;;;;;;;;;36.64;19.31;99370.38;4406620;32;33338;-83
2022/07/21 07:10:39;;;;;;;;;;;;;;;36.06;20.42;99373.78;4420786;32;34315;-84
2022/07/21 07:13:06;;;;;;;;;;;;;;;35.81;20.31;99375.13;4411181;32;34102;-85
2022/07/21 07:15:54;;;;;;;;;;;;;;;35.55;20.65;99376.56;4406583;32;33556;-86
2022/07/21 07:18:23;;;;;;;;;;;;;;;36.75;20.27;99378.34;4420251;32;34217;-85
2022/07/21 07:20:51;;;;;;;;;;;;;;;36.52;20.04;99377.75;4428168;32;34054;-83
2022/07/21 07:23:19;;;;;;;;;;;;;;;36.25;21.21;99383.78;4406245;32;35420;-86
2022/07/21 07:25:46;;;;;;;;;;;;;;;35.53;20.74;99371.28;4420690;32;35112;-85
2022/07/21 07:28:14;;;;;;;;;;;;;;;37.30;19.87;99371.47;4420696;32;33921;-84
2022/07/21 07:30:43;;;;;;;;;;;;;;;37.43;19.04;99372.00;4428834;32;33806;-83
2022/07/21 07:33:10;;;;;;;;;;;;;;;36.77;19.87;99383.59;4425260;32;34226;-85
2022/07/21 07:35:37;;;;;;;;;;;;;;;36.88;19.71;99366.38;4433213;32;33913;-85
2022/07/21 07:38:05;;;;;;;;;;;;;;;38.25;18.80;99367.66;4435593;32;33188;-85
2022/07/21 07:40:32;;;;;;;;;;;;;;;37.87;18.74;99369.56;4416852;32;33850;-85
2022/07/21 07:43:00;;;;;;;;;;;;;;;38.48;17.81;99363.53;4414329;32;34107;-87
2022/07/21 07:45:34;;;;;;;;;;;;;;;37.82;18.45;99358.34;4420603;32;34974;-87
2022/07/21 07:48:02;;;;;;;;;;;;;;;37.53;18.88;99355.75;4432084;32;32626;-87
2022/07/21 07:50:29;;;;;;;;;;;;;;;36.45;19.87;99362.22;4405403;32;34961;-88
2022/07/21 07:52:57;;;;;;;;;;;;;;;35.91;19.45;99367.03;4405020;32;35232;-86
2022/07/21 07:55:24;;;;;;;;;;;;;;;36.73;19.36;99361.41;4427651;32;34726;-86
2022/07/21 07:57:51;;;;;;;;;;;;;;;36.55;19.43;99360.41;4405700;32;32231;-84
2022/07/21 08:00:19;;;;;;;;;;;;;;;37.05;19.41;99345.87;4409967;32;34866;-85
2022/07/21 08:03:07;;;;;;;;;;;;;;;37.73;18.51;99360.97;4421250;32;35146;-83
2022/07/21 08:05:34;;;;;;;;;;;;;;;35.01;20.75;99364.16;4422215;32;34950;-83
2022/07/21 08:08:01;;;;;;;;;;;;;;;35.33;20.99;99359.53;4436495;32;33472;-85
2022/07/21 08:10:29;;;;;;;;;;;;;;;35.32;20.79;99357.81;4414251;32;33479;-82
2022/07/21 08:13:08;;;;;;;;;;;;;;;35.62;20.67;99361.56;4424358;32;33835;-86
2022/07/21 08:15:36;;;;;;;;;;;;;;;35.82;20.61;99365.16;4421550;32;34125;-85
2022/07/21 08:18:04;;;;;;;;;;;;;;;36.12;20.64;99371.53;4427325;32;34025;-83
2022/07/21 08:20:32;;;;;;;;;;;;;;;37.10;19.43;99360.69;4404883;32;33171;-86
2022/07/21 08:22:59;;;;;;;;;;;;;;;37.88;19.13;99357.75;4417463;32;34411;-83
2022/07/21 08:25:28;;;;;;;;;;;;;;;37.86;18.65;99352.47;4418847;32;33821;-81
2022/07/21 08:27:55;;;;;;;;;;;;;;;37.61;18.33;99353.16;4416169;32;33322;-81
2022/07/21 08:30:22;;;;;;;;;;;;;;;38.03;18.32;99358.09;4429174;32;34336;-86
2022/07/21 08:32:57;;;;;;;;;;;;;;;37.35;18.55;99352.94;4424485;32;35149;-84
2022/07/21 08:35:24;;;;;;;;;;;;;;;37.95;18.27;99345.34;4422773;32;34791;-85
2022/07/21 08:37:53;;;;;;;;;;;;;;;36.76;19.55;99344.91;4410755;32;33946;-82
2022/07/21 08:40:20;;;;;;;;;;;;;;;36.88;19.22;99351.00;4421557;32;33955;-84
2022/07/21 08:42:48;;;;;;;;;;;;;;;36.95;19.89;99343.22;4407466;32;35223;-83
2022/07/21 08:45:15;;;;;;;;;;;;;;;36.87;19.65;99343.91;4412202;32;34268;-80
2022/07/21 08:47:42;;;;;;;;;;;;;;;37.95;18.75;99339.91;4421261;32;32933;-81
2022/07/21 08:50:11;;;;;;;;;;;;;;;35.90;20.48;99351.00;4407028;32;34054;-84
2022/07/21 08:52:38;;;;;;;;;;;;;;;36.23;19.85;99349.84;4407344;32;35328;-82
2022/07/21 08:55:06;;;;;;;;;;;;;;;37.31;19.31;99336.16;4407729;32;34084;-82
2022/07/21 08:57:33;;;;;;;;;;;;;;;37.26;19.16;99331.19;4420574;32;33566;-83
2022/07/21 09:00:00;;;;;;;;;;;;;;;37.64;18.76;99331.22;4421106;32;35147;-82
2022/07/21 09:02:31;;;;;;;;;;;;;;;37.73;18.84;99328.50;4423649;32;34438;-84
2022/07/21 09:04:59;;;;;;;;;;;;;;;37.46;18.86;99336.56;4421162;32;34216;-84
2022/07/21 09:07:26;;;;;;;;;;;;;;;38.08;18.28;99335.00;4390745;32;32559;-82
2022/07/21 09:09:55;;;;;;;;;;;;;;;38.65;18.17;99343.72;4407241;32;34549;-82
2022/07/21 09:12:23;;;;;;;;;;;;;;;38.12;18.46;99333.69;4426126;32;35236;-84
2022/07/21 09:14:50;;;;;;;;;;;;;;;38.55;18.29;99331.28;4415732;32;34200;-84
2022/07/21 09:17:17;;;;;;;;;;;;;;;38.63;17.58;99328.63;4410119;32;34285;-84
2022/07/21 09:19:46;;;;;;;;;;;;;;;37.91;18.46;99333.09;4424157;32;33992;-82
2022/07/21 09:22:18;;;;;;;;;;;;;;;37.46;18.53;99331.16;4421104;32;34419;-85
2022/07/21 09:24:49;;;;;;;;;;;;;;;37.84;18.55;99331.97;4407715;32;33533;-82
2022/07/21 09:27:17;;;;;;;;;;;;;;;38.97;18.94;99325.19;4421236;32;33984;-84
2022/07/21 09:29:49;;;;;;;;;;;;;;;38.78;16.93;99321.63;4407913;32;34318;-82
2022/07/21 09:32:36;;;;;;;;;;;;;;;39.09;17.21;99315.78;4394514;32;33641;-84
2022/07/21 09:35:04;;;;;;;;;;;;;;;38.87;17.14;99309.91;4399080;32;34222;-82
2022/07/21 09:37:35;;;;;;;;;;;;;;;39.22;17.08;99309.97;4420952;32;33137;-81
2022/07/21 09:40:06;;;;;;;;;;;;;;;39.66;16.69;99305.28;4422939;32;34965;-82
2022/07/21 09:42:35;;;;;;;;;;;;;;;38.43;17.34;99311.69;4414353;32;33840;-82
2022/07/21 09:45:07;;;;;;;;;;;;;;;38.62;16.89;99305.25;4407588;32;34508;-83
2022/07/21 09:47:34;;;;;;;;;;;;;;;38.76;17.31;99303.84;4436517;32;33455;-82
2022/07/21 09:50:02;;;;;;;;;;;;;;;39.64;16.53;99300.03;4419919;32;35028;-82
2022/07/21 09:52:49;;;;;;;;;;;;;;;38.83;16.80;99294.09;4408703;32;34288;-82
2022/07/21 09:55:17;;;;;;;;;;;;;;;39.35;16.16;99291.41;4405539;32;33293;-84
2022/07/21 09:57:44;;;;;;;;;;;;;;;39.46;16.41;99288.41;4413289;32;33297;-83
2022/07/21 10:00:13;;;;;;;;;;;;;;;38.38;17.26;99290.50;4420911;32;34958;-83
2022/07/21 10:02:46;;;;;;;;;;;;;;;39.31;17.00;99290.03;4418245;32;33915;-82
2022/07/21 10:05:14;;;;;;;;;;;;;;;39.93;16.28;99289.78;4422560;32;34998;-86
2022/07/21 10:07:42;;;;;;;;;;;;;;;39.84;16.19;99292.47;4421046;32;34283;-85
2022/07/21 10:10:10;;;;;;;;;;;;;;;39.89;17.23;99290.13;4407004;32;33819;-91
2022/07/21 10:12:38;;;;;;;;;;;;;;;39.47;17.18;99290.09;4424297;32;34167;-82
2022/07/21 10:15:05;;;;;;;;;;;;;;;40.16;15.96;99280.03;4407040;32;34112;-84
2022/07/21 10:17:33;;;;;;;;;;;;;;;40.19;16.23;99284.28;4408109;32;32068;-84
2022/07/21 10:20:06;;;;;;;;;;;;;;;40.28;17.13;99275.13;4407566;32;35546;-84
2022/07/21 10:23:01;;;;;;;;;;;;;;;40.11;16.59;99277.78;4397819;32;34381;-86
2022/07/21 10:25:28;;;;;;;;;;;;;;;40.28;15.34;99281.41;4405526;32;34834;-86
2022/07/21 10:28:17;;;;;;;;;;;;;;;40.44;16.43;99261.53;4436383;32;33635;-86
2022/07/21 10:30:45;;;;;;;;;;;;;;;40.54;15.91;99267.66;4435376;32;33944;-86
2022/07/21 10:33:13;;;;;;;;;;;;;;;40.42;15.61;99266.28;4421961;32;34512;-85
2022/07/21 10:35:41;;;;;;;;;;;;;;;40.32;15.55;99254.75;4436304;32;34507;-86
2022/07/21 10:38:28;;;;;;;;;;;;;;;40.61;16.18;99262.41;4427623;32;32953;-85
2022/07/21 10:40:55;;;;;;;;;;;;;;;40.65;15.71;99260.19;4421021;32;34114;-85
2022/07/21 10:43:28;;;;;;;;;;;;;;;40.50;15.02;99250.00;4421457;32;33575;-85
2022/07/21 10:45:58;;;;;;;;;;;;;;;39.83;16.69;99263.63;4421162;32;33749;-83
2022/07/21 10:48:37;;;;;;;;;;;;;;;39.85;16.71;99263.47;4430601;32;33593;-86
2022/07/21 10:51:11;;;;;;;;;;;;;;;40.29;15.63;99255.09;4424770;32;34050;-85
2022/07/21 10:53:39;;;;;;;;;;;;;;;39.50;16.11;99257.22;4421062;32;35369;-85
2022/07/21 10:56:07;;;;;;;;;;;;;;;40.47;17.16;99253.06;4420945;32;34343;-86
2022/07/21 10:58:38;;;;;;;;;;;;;;;40.69;14.69;99248.84;4420947;32;33934;-87
2022/07/21 11:01:14;;;;;;;;;;;;;;;40.34;14.95;99247.28;4425225;32;33283;-86
2022/07/21 11:03:51;;;;;;;;;;;;;;;40.26;14.99;99239.13;4421741;32;34572;-84
2022/07/21 11:06:21;;;;;;;;;;;;;;;39.48;15.78;99244.84;4418824;32;34007;-85
2022/07/21 11:09:03;;;;;;;;;;;;;;;39.26;17.24;99238.13;4408826;32;32557;-85
2022/07/21 11:11:31;;;;;;;;;;;;;;;40.52;15.71;99231.66;4421384;32;34660;-82
2022/07/21 11:14:01;;;;;;;;;;;;;;;40.55;15.26;99230.47;4435880;32;33869;-81
2022/07/21 11:16:46;;;;;;;;;;;;;;;39.92;15.99;99234.62;4409436;32;34748;-81
2022/07/21 11:19:37;;;;;;;;;;;;;;;40.75;15.38;99226.38;4414124;32;34045;-82
2022/07/21 11:22:20;;;;;;;;;;;;;;;41.08;14.60;99227.19;4420564;32;34937;-81
2022/07/21 11:24:48;;;;;;;;;;;;;;;40.81;14.42;99217.56;4406566;32;34147;-81
2022/07/21 11:27:16;;;;;;;;;;;;;;;41.27;14.40;99215.03;4420531;32;34137;-82
2022/07/21 11:29:43;;;;;;;;;;;;;;;40.90;15.25;99212.09;4410813;32;33088;-81
2022/07/21 11:32:11;;;;;;;;;;;;;;;40.09;14.84;99230.94;4405533;32;35519;-81
2022/07/21 11:34:49;;;;;;;;;;;;;;;40.81;14.08;99201.25;4406315;32;35154;-83
2022/07/21 11:37:18;;;;;;;;;;;;;;;40.58;15.00;99203.00;4406198;32;33764;-83
2022/07/21 11:40:05;;;;;;;;;;;;;;;40.98;14.68;99210.22;4404809;32;33127;-85
2022/07/21 11:42:33;;;;;;;;;;;;;;;41.18;14.93;99210.69;4391605;32;34880;-85
2022/07/21 11:45:01;;;;;;;;;;;;;;;41.45;14.17;99200.37;4380800;32;32657;-85
2022/07/21 11:47:28;;;;;;;;;;;;;;;40.29;14.91;99195.34;4393160;32;34163;-83
2022/07/21 11:49:57;;;;;;;;;;;;;;;40.41;15.68;99196.66;4436241;32;34074;-85
2022/07/21 11:52:36;;;;;;;;;;;;;;;40.86;15.11;99198.00;4407388;32;34950;-83
2022/07/21 11:55:05;;;;;;;;;;;;;;;40.76;14.15;99184.56;4403402;32;34303;-84
2022/07/21 11:57:33;;;;;;;;;;;;;;;40.56;15.10;99181.41;4403180;32;33261;-84
2022/07/21 12:00:05;;;;;;;;;;;;;;;39.41;14.68;99191.25;4390132;32;1093097;-87
2022/07/21 12:02:38;;;;;;;;;;;;;;;40.49;14.15;99188.50;4410087;32;33172;-84
2022/07/21 12:05:08;;;;;;;;;;;;;;;40.98;13.75;99183.03;4423823;32;34511;-87
2022/07/21 12:07:38;;;;;;;;;;;;;;;41.16;13.66;99181.94;4408457;32;34875;-88
2022/07/21 12:10:10;;;;;;;;;;;;;;;41.39;13.16;99179.28;4412750;32;33202;-86
2022/07/21 12:12:43;;;;;;;;;;;;;;;41.21;12.89;99165.94;4389598;32;34860;-85
2022/07/21 12:15:12;;;;;;;;;;;;;;;41.42;12.30;99165.38;4418319;32;35338;-87
2022/07/21 12:17:41;;;;;;;;;;;;;;;41.48;12.71;99160.03;4407696;32;33469;-86
2022/07/21 12:20:09;;;;;;;;;;;;;;;41.40;12.36;99164.66;4399541;32;31608;-85
2022/07/21 12:22:44;;;;;;;;;;;;;;;40.85;13.66;99150.09;4405742;32;34060;-86
2022/07/21 12:25:11;;;;;;;;;;;;;;;41.14;12.99;99159.50;4422283;32;34943;-85
2022/07/21 12:27:40;;;;;;;;;;;;;;;41.22;12.44;99160.34;4408303;32;34499;-84
2022/07/21 12:30:08;;;;;;;;;;;;;;;40.13;13.22;99153.59;4408170;32;32876;-85
2022/07/21 12:32:37;;;;;;;;;;;;;;;41.04;12.83;99155.13;4421062;32;34149;-85
2022/07/21 12:35:05;;;;;;;;;;;;;;;40.64;12.85;99153.34;4422072;32;34486;-86
2022/07/21 12:37:59;;;;;;;;;;;;;;;40.93;13.00;99147.34;4409906;32;35005;-87
2022/07/21 12:40:27;;;;;;;;;;;;;;;40.65;12.80;99146.94;4422009;32;33545;-85
2022/07/21 12:43:11;;;;;;;;;;;;;;;41.18;12.54;99150.84;4407488;32;33897;-84
2022/07/21 12:45:46;;;;;;;;;;;;;;;40.17;12.93;99145.09;4421685;32;34252;-84
2022/07/21 12:48:14;;;;;;;;;;;;;;;42.01;11.53;99136.53;4422046;32;33927;-84
2022/07/21 12:50:42;;;;;;;;;;;;;;;41.64;11.76;99139.22;4408935;32;33114;-85
2022/07/21 12:53:10;;;;;;;;;;;;;;;41.40;12.70;99132.84;4421670;32;34184;-84
2022/07/21 12:55:38;;;;;;;;;;;;;;;40.65;12.55;99129.75;4421236;32;34468;-83
2022/07/21 12:58:05;;;;;;;;;;;;;;;42.01;12.31;99120.19;4407775;32;35169;-85
2022/07/21 13:00:33;;;;;;;;;;;;;;;42.57;12.24;99132.63;4421075;32;33379;-85
2022/07/21 13:03:05;;;;;;;;;;;;;;;41.42;12.23;99124.53;4408251;32;34198;-85
2022/07/21 13:05:32;;;;;;;;;;;;;;;41.09;12.09;99119.25;4408147;32;34455;-85
2022/07/21 13:08:00;;;;;;;;;;;;;;;41.36;13.01;99120.62;4421668;32;33918;-85
2022/07/21 13:10:29;;;;;;;;;;;;;;;40.52;12.70;99122.97;4421984;32;32881;-87
2022/07/21 13:12:56;;;;;;;;;;;;;;;40.69;13.06;99122.94;4421848;32;34720;-85
2022/07/21 13:15:25;;;;;;;;;;;;;;;41.11;12.51;99116.34;4409249;32;34256;-85
2022/07/21 13:17:52;;;;;;;;;;;;;;;41.54;11.80;99113.06;4413900;32;35132;-87
2022/07/21 13:20:20;;;;;;;;;;;;;;;41.40;11.99;99116.50;4436854;32;34136;-85
2022/07/21 13:22:48;;;;;;;;;;;;;;;41.85;11.62;99098.56;4411859;32;33625;-87
2022/07/21 13:25:15;;;;;;;;;;;;;;;41.77;11.87;99104.03;4421685;32;34399;-86
2022/07/21 13:27:44;;;;;;;;;;;;;;;41.39;12.42;99109.37;4421682;32;34874;-88
2022/07/21 13:30:15;;;;;;;;;;;;;;;41.80;12.03;99100.97;4421263;32;34316;-86
2022/07/21 13:32:43;;;;;;;;;;;;;;;41.77;11.90;99099.44;4421499;32;34268;-85
2022/07/21 13:35:10;;;;;;;;;;;;;;;41.14;12.52;99100.50;4421420;32;34439;-85
2022/07/21 13:37:53;;;;;;;;;;;;;;;41.78;11.68;99092.13;4394331;32;34335;-85
2022/07/21 13:40:20;;;;;;;;;;;;;;;41.33;12.16;99091.03;4406146;32;34341;-85
2022/07/21 13:43:08;;;;;;;;;;;;;;;41.53;12.09;99094.19;4406070;32;34320;-84